createdAt,value
2019-05-22T00:01:50.016Z,16.60
2019-05-22T00:04:27.651Z,16.60
2019-05-22T00:06:59.343Z,16.58
2019-05-22T00:09:37.259Z,16.60
2019-05-22T00:12:10.161Z,16.61
2019-05-22T00:14:40.592Z,16.62
2019-05-22T00:17:11.630Z,16.59
2019-05-22T00:19:42.296Z,16.58
2019-05-22T00:22:19.471Z,16.57
2019-05-22T00:24:50.337Z,16.54
2019-05-22T00:27:20.893Z,16.52
2019-05-22T00:29:51.438Z,16.50
2019-05-22T00:32:21.172Z,16.49
2019-05-22T00:34:50.849Z,16.46
2019-05-22T00:37:20.185Z,16.45
2019-05-22T00:39:49.535Z,16.43
2019-05-22T00:42:19.057Z,16.45
2019-05-22T00:44:48.958Z,16.46
2019-05-22T00:47:19.997Z,16.46
2019-05-22T00:49:52.473Z,16.44
2019-05-22T00:52:44.946Z,16.42
2019-05-22T00:55:28.360Z,16.43
2019-05-22T00:57:59.699Z,16.44
2019-05-22T01:00:30.813Z,16.43
2019-05-22T01:03:02.565Z,16.44
2019-05-22T01:05:32.580Z,16.45
2019-05-22T01:08:03.924Z,16.45
2019-05-22T01:10:33.566Z,16.43
2019-05-22T01:13:04.512Z,16.41
2019-05-22T01:15:35.836Z,16.39
2019-05-22T01:18:10.285Z,16.38
2019-05-22T01:20:41.604Z,16.40
2019-05-22T01:23:14.209Z,16.41
2019-05-22T01:25:44.450Z,16.41
2019-05-22T01:28:16.501Z,16.41
2019-05-22T01:30:58.327Z,16.39
2019-05-22T01:33:35.421Z,16.38
2019-05-22T01:36:06.431Z,16.37
2019-05-22T01:38:39.294Z,16.36
2019-05-22T01:41:13.355Z,16.36
2019-05-22T01:43:43.783Z,16.35
2019-05-22T01:46:15.213Z,16.35
2019-05-22T01:48:45.709Z,16.34
2019-05-22T01:51:16.633Z,16.33
2019-05-22T01:53:46.763Z,16.34
2019-05-22T01:56:17.803Z,16.33
2019-05-22T01:58:47.771Z,16.30
2019-05-22T02:01:17.706Z,16.31
2019-05-22T02:03:51.513Z,16.30
2019-05-22T02:06:23.388Z,16.32
2019-05-22T02:09:06.131Z,16.28
2019-05-22T02:11:35.710Z,16.27
2019-05-22T02:14:11.812Z,16.25
2019-05-22T02:16:56.273Z,16.24
2019-05-22T02:19:16.624Z,16.22
2019-05-22T02:21:47.806Z,16.19
2019-05-22T02:24:18.545Z,16.15
2019-05-22T02:26:48.183Z,16.14
2019-05-22T02:29:19.814Z,16.13
2019-05-22T02:31:54.991Z,16.06
2019-05-22T02:34:22.168Z,16.03
2019-05-22T02:36:53.719Z,15.97
2019-05-22T02:39:31.657Z,15.95
2019-05-22T02:42:16.492Z,15.92
2019-05-22T02:44:47.013Z,15.85
2019-05-22T02:47:20.669Z,15.82
2019-05-22T02:49:51.000Z,15.80
2019-05-22T02:52:23.035Z,15.76
2019-05-22T02:54:52.435Z,15.68
2019-05-22T02:57:23.176Z,15.65
2019-05-22T02:59:53.397Z,15.59
2019-05-22T03:02:23.763Z,15.57
2019-05-22T03:04:59.937Z,15.52
2019-05-22T03:07:31.904Z,15.53
2019-05-22T03:10:03.552Z,15.49
2019-05-22T03:12:34.907Z,15.47
2019-05-22T03:15:07.682Z,15.50
2019-05-22T03:17:40.925Z,15.50
2019-05-22T03:20:17.402Z,15.52
2019-05-22T03:22:49.667Z,15.55
2019-05-22T03:25:20.106Z,15.56
2019-05-22T03:27:50.850Z,15.62
2019-05-22T03:30:27.221Z,15.65
2019-05-22T03:32:59.279Z,15.67
2019-05-22T03:35:31.867Z,15.70
2019-05-22T03:38:01.913Z,15.70
2019-05-22T03:40:32.098Z,15.71
2019-05-22T03:43:07.313Z,15.70
2019-05-22T03:45:37.398Z,15.71
2019-05-22T03:48:07.145Z,15.73
2019-05-22T03:50:37.726Z,15.84
2019-05-22T03:53:10.264Z,15.95
2019-05-22T03:55:40.213Z,16.06
2019-05-22T03:58:10.103Z,16.13
2019-05-22T04:00:43.221Z,16.21
2019-05-22T04:03:11.369Z,16.23
2019-05-22T04:05:40.636Z,16.41
2019-05-22T04:08:11.069Z,16.63
2019-05-22T04:11:02.800Z,16.66
2019-05-22T04:13:33.319Z,16.69
2019-05-22T04:16:08.893Z,16.88
2019-05-22T04:18:40.964Z,17.05
2019-05-22T04:21:10.274Z,17.24
2019-05-22T04:23:40.183Z,17.30
2019-05-22T04:26:11.554Z,17.29
2019-05-22T04:28:49.716Z,17.30
2019-05-22T04:31:21.588Z,17.27
2019-05-22T04:33:51.520Z,17.29
2019-05-22T04:36:24.344Z,17.36
2019-05-22T04:38:54.371Z,17.34
2019-05-22T04:41:24.503Z,17.27
2019-05-22T04:43:55.275Z,17.23
2019-05-22T04:46:25.332Z,17.23
2019-05-22T04:48:55.496Z,17.18
2019-05-22T04:51:27.353Z,17.25
2019-05-22T04:53:58.165Z,17.23
2019-05-22T04:56:28.770Z,17.21
2019-05-22T04:58:59.505Z,17.37
2019-05-22T05:01:31.015Z,17.66
2019-05-22T05:04:01.796Z,17.93
2019-05-22T05:06:33.535Z,17.97
2019-05-22T05:09:04.054Z,18.17
2019-05-22T05:11:34.210Z,18.58
2019-05-22T05:14:03.587Z,18.95
2019-05-22T05:16:32.956Z,18.78
2019-05-22T05:19:02.559Z,18.52
2019-05-22T05:21:32.595Z,18.47
2019-05-22T05:24:02.209Z,18.42
2019-05-22T05:26:31.622Z,18.32
2019-05-22T05:29:00.920Z,18.33
2019-05-22T05:31:33.486Z,18.40
2019-05-22T05:34:25.386Z,18.41
2019-05-22T05:36:55.786Z,18.43
2019-05-22T05:39:37.878Z,18.46
2019-05-22T05:42:09.712Z,18.46
2019-05-22T05:44:39.069Z,18.46
2019-05-22T05:47:09.369Z,18.44
2019-05-22T05:49:41.785Z,18.43
2019-05-22T05:52:13.374Z,18.43
2019-05-22T05:54:43.677Z,18.36
2019-05-22T05:57:35.899Z,18.37
2019-05-22T06:00:10.345Z,18.34
2019-05-22T06:02:54.006Z,18.32
2019-05-22T06:05:10.786Z,18.23
2019-05-22T06:07:40.578Z,17.99
2019-05-22T06:10:25.529Z,17.78
2019-05-22T06:12:54.869Z,17.73
2019-05-22T06:15:45.795Z,17.71
2019-05-22T06:18:11.170Z,17.76
2019-05-22T06:20:40.492Z,17.85
2019-05-22T06:23:26.574Z,17.98
2019-05-22T06:25:58.432Z,18.30
2019-05-22T06:28:29.746Z,18.52
2019-05-22T06:31:02.051Z,18.77
2019-05-22T06:33:34.093Z,19.09
2019-05-22T06:36:09.188Z,19.59
2019-05-22T06:39:00.648Z,20.08
2019-05-22T06:41:33.035Z,20.08
2019-05-22T06:44:30.387Z,19.69
2019-05-22T06:47:08.398Z,19.34
2019-05-22T06:49:40.478Z,19.26
2019-05-22T06:52:11.005Z,19.32
2019-05-22T06:54:40.907Z,19.28
2019-05-22T06:57:18.418Z,19.22
2019-05-22T07:00:10.741Z,19.10
2019-05-22T07:02:23.491Z,19.04
2019-05-22T07:04:53.617Z,19.03
2019-05-22T07:07:24.915Z,18.95
2019-05-22T07:09:56.663Z,18.99
2019-05-22T07:12:30.574Z,18.95
2019-05-22T07:15:07.385Z,18.93
2019-05-22T07:17:40.008Z,18.79
2019-05-22T07:20:11.217Z,18.71
2019-05-22T07:22:41.875Z,18.75
2019-05-22T07:25:12.161Z,18.71
2019-05-22T07:27:42.515Z,18.56
2019-05-22T07:30:13.052Z,18.64
2019-05-22T07:32:42.752Z,18.64
2019-05-22T07:35:13.200Z,18.49
2019-05-22T07:37:45.174Z,18.27
2019-05-22T07:40:18.575Z,18.09
2019-05-22T07:42:50.172Z,18.01
2019-05-22T07:45:21.517Z,18.03
2019-05-22T07:47:52.082Z,18.01
2019-05-22T07:50:23.030Z,17.96
2019-05-22T07:52:53.772Z,18.09
2019-05-22T07:55:24.338Z,18.36
2019-05-22T07:58:06.283Z,18.49
2019-05-22T08:00:36.491Z,18.66
2019-05-22T08:03:06.900Z,18.91
2019-05-22T08:05:39.541Z,19.14
2019-05-22T08:08:09.035Z,19.07
2019-05-22T08:10:39.835Z,19.07
2019-05-22T08:13:10.085Z,19.25
2019-05-22T08:15:40.156Z,19.24
2019-05-22T08:18:09.912Z,19.26
2019-05-22T08:20:40.535Z,19.23
2019-05-22T08:23:11.317Z,19.46
2019-05-22T08:25:40.691Z,19.69
2019-05-22T08:28:10.457Z,19.86
2019-05-22T08:30:39.862Z,19.93
2019-05-22T08:33:12.837Z,20.13
2019-05-22T08:35:42.972Z,20.07
2019-05-22T08:38:14.137Z,20.08
2019-05-22T08:40:45.211Z,19.95
2019-05-22T08:43:15.239Z,19.91
2019-05-22T08:45:44.739Z,19.95
2019-05-22T08:48:15.260Z,19.96
2019-05-22T08:50:45.983Z,20.01
2019-05-22T08:53:16.694Z,20.32
2019-05-22T08:55:46.745Z,20.25
2019-05-22T08:58:16.400Z,20.28
2019-05-22T09:00:47.682Z,20.90
2019-05-22T09:03:17.551Z,21.03
2019-05-22T09:05:46.943Z,21.67
2019-05-22T09:08:17.014Z,21.58
2019-05-22T09:10:47.093Z,21.86
2019-05-22T09:13:16.479Z,22.77
2019-05-22T09:15:48.353Z,23.53
2019-05-22T09:18:23.860Z,23.40
2019-05-22T09:20:53.719Z,23.32
2019-05-22T09:23:23.549Z,23.39
2019-05-22T09:25:52.912Z,23.52
2019-05-22T09:28:22.308Z,23.54
2019-05-22T09:30:51.669Z,23.05
2019-05-22T09:33:21.807Z,23.25
2019-05-22T09:35:51.558Z,23.52
2019-05-22T09:38:21.146Z,23.41
2019-05-22T09:40:50.671Z,23.10
2019-05-22T09:43:20.569Z,23.31
2019-05-22T09:45:49.955Z,23.50
2019-05-22T09:48:20.112Z,23.04
2019-05-22T09:50:49.504Z,23.35
2019-05-22T09:53:19.824Z,23.98
2019-05-22T09:55:49.982Z,23.87
2019-05-22T09:58:19.690Z,23.46
2019-05-22T10:00:49.118Z,24.07
2019-05-22T10:03:18.768Z,24.39
2019-05-22T10:05:48.766Z,24.00
2019-05-22T10:08:18.119Z,24.04
2019-05-22T10:10:47.657Z,24.19
2019-05-22T10:13:18.049Z,24.07
2019-05-22T10:15:47.361Z,24.00
2019-05-22T10:18:17.037Z,23.50
2019-05-22T10:20:47.024Z,23.67
2019-05-22T10:23:17.158Z,24.16
2019-05-22T10:25:46.599Z,24.85
2019-05-22T10:28:17.111Z,24.01
2019-05-22T10:30:46.464Z,24.03
2019-05-22T10:33:15.945Z,23.92
2019-05-22T10:35:45.875Z,23.84
2019-05-22T10:38:15.512Z,23.39
2019-05-22T10:40:45.490Z,23.36
2019-05-22T10:43:15.374Z,23.11
2019-05-22T10:45:45.798Z,22.97
2019-05-22T10:48:15.325Z,23.01
2019-05-22T10:50:44.799Z,23.26
2019-05-22T10:53:32.261Z,23.61
2019-05-22T10:55:46.913Z,23.37
2019-05-22T10:58:16.511Z,23.36
2019-05-22T11:00:46.212Z,23.34
2019-05-22T11:03:17.579Z,23.16
2019-05-22T11:06:03.539Z,22.99
2019-05-22T11:08:19.184Z,23.24
2019-05-22T11:10:48.671Z,23.33
2019-05-22T11:13:18.230Z,23.36
2019-05-22T11:15:47.604Z,23.52
2019-05-22T11:18:17.631Z,23.20
2019-05-22T11:20:47.549Z,23.80
2019-05-22T11:23:17.406Z,25.05
2019-05-22T11:25:47.132Z,25.14
2019-05-22T11:28:16.840Z,25.87
2019-05-22T11:30:46.779Z,25.52
2019-05-22T11:33:16.416Z,25.19
2019-05-22T11:35:46.447Z,25.04
2019-05-22T11:38:16.195Z,24.98
2019-05-22T11:40:45.969Z,24.64
2019-05-22T11:43:15.963Z,24.11
2019-05-22T11:45:46.078Z,23.71
2019-05-22T11:48:15.443Z,23.23
2019-05-22T11:50:45.890Z,23.25
2019-05-22T11:53:16.282Z,23.50
2019-05-22T11:55:46.553Z,23.33
2019-05-22T11:58:16.514Z,23.64
2019-05-22T12:00:46.293Z,23.69
2019-05-22T12:03:15.790Z,23.90
2019-05-22T12:05:46.535Z,24.04
2019-05-22T12:08:16.440Z,24.17
2019-05-22T12:10:45.865Z,23.98
2019-05-22T12:13:16.951Z,24.05
2019-05-22T12:15:46.264Z,24.86
2019-05-22T12:18:16.170Z,25.69
2019-05-22T12:20:45.583Z,26.34
2019-05-22T12:23:14.864Z,27.34
2019-05-22T12:25:44.256Z,27.68
2019-05-22T12:28:13.627Z,26.97
2019-05-22T12:30:44.058Z,26.45
2019-05-22T12:33:14.469Z,27.16
2019-05-22T12:35:44.933Z,27.43
2019-05-22T12:38:15.059Z,27.64
2019-05-22T12:40:45.331Z,26.90
2019-05-22T12:43:16.055Z,27.86
2019-05-22T12:45:46.094Z,27.27
2019-05-22T12:48:15.981Z,28.21
2019-05-22T12:50:45.698Z,26.97
2019-05-22T12:53:16.928Z,26.86
2019-05-22T12:55:46.818Z,27.77
2019-05-22T12:58:16.793Z,27.63
2019-05-22T13:00:46.323Z,27.39
2019-05-22T13:03:16.197Z,26.47
2019-05-22T13:05:47.254Z,27.26
2019-05-22T13:08:17.412Z,27.50
2019-05-22T13:10:48.170Z,27.08
2019-05-22T13:13:18.003Z,26.96
2019-05-22T13:15:47.437Z,26.53
2019-05-22T13:18:20.596Z,27.29
2019-05-22T13:20:51.500Z,26.58
2019-05-22T13:23:24.928Z,26.43
2019-05-22T13:25:55.082Z,26.70
2019-05-22T13:28:27.774Z,26.99
2019-05-22T13:30:58.294Z,27.18
2019-05-22T13:33:29.281Z,26.62
2019-05-22T13:35:59.592Z,26.72
2019-05-22T13:38:29.516Z,26.63
2019-05-22T13:40:59.388Z,26.55
2019-05-22T13:43:29.934Z,26.60
2019-05-22T13:45:59.462Z,26.59
2019-05-22T13:48:29.525Z,27.08
2019-05-22T13:51:00.381Z,27.13
2019-05-22T13:53:30.186Z,27.00
2019-05-22T13:55:59.880Z,27.68
2019-05-22T13:58:31.038Z,28.14
2019-05-22T14:01:00.756Z,27.86
2019-05-22T14:03:30.325Z,27.07
2019-05-22T14:06:00.103Z,27.00
2019-05-22T14:08:30.230Z,26.96
2019-05-22T14:10:59.950Z,26.55
2019-05-22T14:13:30.103Z,26.73
2019-05-22T14:15:59.804Z,26.85
2019-05-22T14:18:29.460Z,26.70
2019-05-22T14:20:58.984Z,26.50
2019-05-22T14:23:29.188Z,26.37
2019-05-22T14:25:58.862Z,26.90
2019-05-22T14:28:28.733Z,26.07
2019-05-22T14:30:58.589Z,26.27
2019-05-22T14:33:28.576Z,26.62
2019-05-22T14:35:58.882Z,27.14
2019-05-22T14:38:28.784Z,27.25
2019-05-22T14:40:58.815Z,26.58
2019-05-22T14:43:30.056Z,26.43
2019-05-22T14:45:59.753Z,26.17
2019-05-22T14:48:29.269Z,25.83
2019-05-22T14:50:59.640Z,25.17
2019-05-22T14:53:29.903Z,25.26
2019-05-22T14:56:02.064Z,26.01
2019-05-22T14:58:31.543Z,26.50
2019-05-22T15:01:01.076Z,26.82
2019-05-22T15:03:31.838Z,25.72
2019-05-22T15:06:01.306Z,25.53
2019-05-22T15:08:30.867Z,25.41
2019-05-22T15:11:01.117Z,25.64
2019-05-22T15:13:30.809Z,25.18
2019-05-22T15:16:00.951Z,24.91
2019-05-22T15:18:30.530Z,24.65
2019-05-22T15:21:01.523Z,24.14
2019-05-22T15:23:33.678Z,24.13
2019-05-22T15:26:04.144Z,23.87
2019-05-22T15:28:33.614Z,22.94
2019-05-22T15:31:03.785Z,22.55
2019-05-22T15:33:35.050Z,22.83
2019-05-22T15:36:08.397Z,23.50
2019-05-22T15:38:41.159Z,24.43
2019-05-22T15:41:11.545Z,25.01
2019-05-22T15:43:43.440Z,25.64
2019-05-22T15:46:15.668Z,26.02
2019-05-22T15:48:47.523Z,26.62
2019-05-22T15:51:21.471Z,26.48
2019-05-22T15:53:52.358Z,26.50
2019-05-22T15:56:22.131Z,25.85
2019-05-22T15:58:55.338Z,25.33
2019-05-22T16:01:26.078Z,24.81
2019-05-22T16:03:58.227Z,24.47
2019-05-22T16:06:30.327Z,24.30
2019-05-22T16:09:02.286Z,23.98
2019-05-22T16:11:31.732Z,23.73
2019-05-22T16:14:03.428Z,23.50
2019-05-22T16:16:34.371Z,23.41
2019-05-22T16:19:07.425Z,23.32
2019-05-22T16:21:40.519Z,23.29
2019-05-22T16:24:11.607Z,23.13
2019-05-22T16:26:42.430Z,23.03
2019-05-22T16:29:12.927Z,22.83
2019-05-22T16:31:44.051Z,22.72
2019-05-22T16:34:14.811Z,22.78
2019-05-22T16:36:45.862Z,22.82
2019-05-22T16:39:16.495Z,22.31
2019-05-22T16:41:47.347Z,22.45
2019-05-22T16:44:17.450Z,22.74
2019-05-22T16:46:48.107Z,22.54
2019-05-22T16:49:17.972Z,22.38
2019-05-22T16:51:49.041Z,22.41
2019-05-22T16:54:21.192Z,22.05
2019-05-22T16:56:51.736Z,21.73
2019-05-22T16:59:22.220Z,21.78
2019-05-22T17:01:59.191Z,21.86
2019-05-22T17:04:22.911Z,21.66
2019-05-22T17:06:52.858Z,21.57
2019-05-22T17:09:23.439Z,21.54
2019-05-22T17:11:53.395Z,21.44
2019-05-22T17:14:25.244Z,21.36
2019-05-22T17:16:55.093Z,21.05
2019-05-22T17:19:27.520Z,21.08
2019-05-22T17:21:56.973Z,21.04
2019-05-22T17:24:27.435Z,20.92
2019-05-22T17:26:57.427Z,21.00
2019-05-22T17:29:29.242Z,20.99
2019-05-22T17:31:59.475Z,20.98
2019-05-22T17:34:32.892Z,20.74
2019-05-22T17:37:06.606Z,20.62
2019-05-22T17:39:39.307Z,20.58
2019-05-22T17:42:12.701Z,20.47
2019-05-22T17:44:46.004Z,20.45
2019-05-22T17:47:18.919Z,20.39
2019-05-22T17:49:49.929Z,20.38
2019-05-22T17:52:20.973Z,20.27
2019-05-22T17:54:52.624Z,20.25
2019-05-22T17:57:22.827Z,20.21
2019-05-22T17:59:53.696Z,20.15
2019-05-22T18:02:25.500Z,20.05
2019-05-22T18:04:55.562Z,19.97
2019-05-22T18:07:25.981Z,19.93
2019-05-22T18:09:56.068Z,19.88
2019-05-22T18:12:27.269Z,19.82
2019-05-22T18:14:57.530Z,19.78
2019-05-22T18:17:28.068Z,19.75
2019-05-22T18:19:57.643Z,19.72
2019-05-22T18:22:27.071Z,19.65
2019-05-22T18:24:56.757Z,19.61
2019-05-22T18:27:26.701Z,19.60
2019-05-22T18:29:56.094Z,19.54
2019-05-22T18:32:26.295Z,19.49
2019-05-22T18:34:55.762Z,19.46
2019-05-22T18:37:25.165Z,19.45
2019-05-22T18:39:55.154Z,19.48
2019-05-22T18:42:25.219Z,19.49
2019-05-22T18:44:54.643Z,19.47
2019-05-22T18:47:24.273Z,19.42
2019-05-22T18:49:53.661Z,19.40
2019-05-22T18:52:38.198Z,19.39
2019-05-22T18:54:54.533Z,19.34
2019-05-22T18:57:24.199Z,19.29
2019-05-22T18:59:59.962Z,19.31
2019-05-22T19:02:25.435Z,19.25
2019-05-22T19:04:55.025Z,19.24
2019-05-22T19:07:24.796Z,19.24
2019-05-22T19:09:54.193Z,19.21
2019-05-22T19:12:24.262Z,19.22
2019-05-22T19:14:53.931Z,19.21
2019-05-22T19:17:23.926Z,19.14
2019-05-22T19:19:53.458Z,18.97
2019-05-22T19:22:23.395Z,18.81
2019-05-22T19:24:52.990Z,18.50
2019-05-22T19:27:22.463Z,18.30
2019-05-22T19:29:51.860Z,18.16
2019-05-22T19:32:21.380Z,18.05
2019-05-22T19:34:50.795Z,17.99
2019-05-22T19:37:20.820Z,17.94
2019-05-22T19:39:50.986Z,17.87
2019-05-22T19:42:20.548Z,17.57
2019-05-22T19:44:49.931Z,17.59
2019-05-22T19:47:20.958Z,17.60
2019-05-22T19:49:50.320Z,17.60
2019-05-22T19:52:22.622Z,17.58
2019-05-22T19:54:52.790Z,17.53
2019-05-22T19:57:24.184Z,17.47
2019-05-22T19:59:54.380Z,17.44
2019-05-22T20:02:24.178Z,17.41
2019-05-22T20:04:54.057Z,17.40
2019-05-22T20:07:23.463Z,17.38
2019-05-22T20:09:53.729Z,17.34
2019-05-22T20:12:25.013Z,17.30
2019-05-22T20:14:54.685Z,17.26
2019-05-22T20:17:24.360Z,17.13
2019-05-22T20:19:55.626Z,17.05
2019-05-22T20:22:26.299Z,16.92
2019-05-22T20:24:55.923Z,16.84
2019-05-22T20:27:25.577Z,16.83
2019-05-22T20:29:55.023Z,16.77
2019-05-22T20:32:25.375Z,16.79
2019-05-22T20:34:54.745Z,16.83
2019-05-22T20:37:25.717Z,16.86
2019-05-22T20:39:55.514Z,16.84
2019-05-22T20:42:25.727Z,16.84
2019-05-22T20:44:56.113Z,16.82
2019-05-22T20:47:27.146Z,16.75
2019-05-22T20:49:57.602Z,16.69
2019-05-22T20:52:30.150Z,16.65
2019-05-22T20:55:01.134Z,16.60
2019-05-22T20:57:32.369Z,16.58
2019-05-22T21:00:02.069Z,16.61
2019-05-22T21:02:33.048Z,16.58
2019-05-22T21:05:03.719Z,16.52
2019-05-22T21:07:36.132Z,16.42
2019-05-22T21:10:09.093Z,16.39
2019-05-22T21:12:39.282Z,16.30
2019-05-22T21:15:10.394Z,16.29
2019-05-22T21:17:42.101Z,16.29
2019-05-22T21:20:14.659Z,16.29
2019-05-22T21:22:44.806Z,16.35
2019-05-22T21:25:14.935Z,16.38
2019-05-22T21:27:44.620Z,16.39
2019-05-22T21:30:15.111Z,16.43
2019-05-22T21:32:45.393Z,16.45
2019-05-22T21:35:17.161Z,16.47
2019-05-22T21:37:46.750Z,16.49
2019-05-22T21:40:18.130Z,16.40
2019-05-22T21:42:47.705Z,16.34
2019-05-22T21:45:17.715Z,16.30
2019-05-22T21:47:47.162Z,16.23
2019-05-22T21:50:17.794Z,16.21
2019-05-22T21:52:49.037Z,16.20
2019-05-22T21:55:20.976Z,16.20
2019-05-22T21:57:51.445Z,16.15
2019-05-22T22:00:39.958Z,16.14
2019-05-22T22:03:12.925Z,16.15
2019-05-22T22:05:42.586Z,16.14
2019-05-22T22:08:12.637Z,16.08
2019-05-22T22:10:43.450Z,16.00
2019-05-22T22:13:13.583Z,15.88
2019-05-22T22:15:46.593Z,15.86
2019-05-22T22:18:29.969Z,15.87
2019-05-22T22:20:59.599Z,15.93
2019-05-22T22:23:29.477Z,15.91
2019-05-22T22:26:00.409Z,15.93
2019-05-22T22:28:31.243Z,15.87
2019-05-22T22:31:10.367Z,15.89
2019-05-22T22:33:40.451Z,15.90
2019-05-22T22:36:10.780Z,15.91
2019-05-22T22:38:41.837Z,15.84
2019-05-22T22:41:14.115Z,15.85
2019-05-22T22:43:46.855Z,15.86
2019-05-22T22:46:23.888Z,15.84
2019-05-22T22:48:55.987Z,15.82
2019-05-22T22:51:26.116Z,15.83
2019-05-22T22:53:57.579Z,15.84
2019-05-22T22:56:28.711Z,15.86
2019-05-22T22:58:59.433Z,15.86
2019-05-22T23:01:32.969Z,15.84
2019-05-22T23:04:05.356Z,15.83
2019-05-22T23:06:36.291Z,15.83
2019-05-22T23:09:08.182Z,15.82
2019-05-22T23:11:41.276Z,15.78
2019-05-22T23:14:11.628Z,15.78
2019-05-22T23:16:41.083Z,15.80
2019-05-22T23:19:14.851Z,15.81
2019-05-22T23:21:44.583Z,15.82
2019-05-22T23:24:14.575Z,15.82
2019-05-22T23:26:44.977Z,15.86
2019-05-22T23:29:16.903Z,15.86
2019-05-22T23:31:46.708Z,15.85
2019-05-22T23:34:20.601Z,15.86
2019-05-22T23:36:50.476Z,15.81
2019-05-22T23:39:20.520Z,15.80
2019-05-22T23:41:51.718Z,15.76
2019-05-22T23:44:23.464Z,15.74
2019-05-22T23:46:53.637Z,15.73
2019-05-22T23:49:23.609Z,15.73
2019-05-22T23:51:53.455Z,15.74
2019-05-22T23:54:24.131Z,15.72
2019-05-22T23:56:54.095Z,15.70
2019-05-22T23:59:24.046Z,15.65
